createdAt,value
2023-09-27T00:00:10.998Z,5.05
2023-09-27T00:02:42.038Z,5.10
2023-09-27T00:05:11.532Z,6.28
2023-09-27T00:07:40.211Z,4.95
2023-09-27T00:10:10.514Z,7.22
2023-09-27T00:12:37.842Z,4.57
2023-09-27T00:15:05.236Z,5.30
2023-09-27T00:17:32.230Z,3.85
2023-09-27T00:19:58.951Z,8.23
2023-09-27T00:22:25.872Z,5.28
2023-09-27T00:24:52.796Z,4.13
2023-09-27T00:27:19.475Z,4.60
2023-09-27T00:29:46.924Z,5.35
2023-09-27T00:32:14.149Z,4.28
2023-09-27T00:34:40.877Z,5.75
2023-09-27T00:37:07.527Z,5.03
2023-09-27T00:39:37.127Z,5.13
2023-09-27T00:42:03.878Z,9.00
2023-09-27T00:44:30.545Z,7.15
2023-09-27T00:46:57.804Z,5.50
2023-09-27T00:49:24.899Z,5.57
2023-09-27T00:51:52.493Z,5.82
2023-09-27T00:54:20.136Z,4.75
2023-09-27T00:56:48.927Z,9.38
2023-09-27T00:59:17.613Z,6.25
2023-09-27T01:01:47.035Z,4.20
2023-09-27T01:04:17.412Z,4.75
2023-09-27T01:06:45.136Z,5.75
2023-09-27T01:09:15.048Z,3.05
2023-09-27T01:11:42.174Z,6.07
2023-09-27T01:14:08.799Z,5.55
2023-09-27T01:16:35.486Z,7.47
2023-09-27T01:19:05.421Z,4.95
2023-09-27T01:21:32.698Z,6.00
2023-09-27T01:23:59.414Z,7.53
2023-09-27T01:26:27.788Z,10.20
2023-09-27T01:28:54.955Z,4.95
2023-09-27T01:31:21.767Z,6.18
2023-09-27T01:33:48.437Z,3.85
2023-09-27T01:36:15.015Z,3.30
2023-09-27T01:38:41.667Z,3.33
2023-09-27T01:41:08.440Z,3.92
2023-09-27T01:43:35.105Z,4.95
2023-09-27T01:46:01.839Z,3.38
2023-09-27T01:48:28.473Z,4.88
2023-09-27T01:50:55.120Z,2.97
2023-09-27T01:53:21.758Z,5.45
2023-09-27T01:55:48.754Z,7.18
2023-09-27T01:58:15.445Z,4.38
2023-09-27T02:00:42.038Z,3.40
2023-09-27T02:03:08.767Z,7.60
2023-09-27T02:05:35.616Z,4.82
2023-09-27T02:08:02.502Z,4.05
2023-09-27T02:10:29.236Z,5.85
2023-09-27T02:12:55.906Z,5.38
2023-09-27T02:15:22.619Z,5.20
2023-09-27T02:17:49.739Z,4.22
2023-09-27T02:20:21.950Z,4.20
2023-09-27T02:22:51.853Z,5.20
2023-09-27T02:25:18.827Z,5.53
2023-09-27T02:27:45.530Z,4.88
2023-09-27T02:30:16.144Z,5.63
2023-09-27T02:32:44.448Z,7.22
2023-09-27T02:35:12.675Z,4.40
2023-09-27T02:37:40.722Z,8.57
2023-09-27T02:40:14.495Z,5.45
2023-09-27T02:42:42.836Z,6.53
2023-09-27T02:45:10.453Z,4.43
2023-09-27T02:47:37.870Z,5.22
2023-09-27T02:50:06.529Z,5.70
2023-09-27T02:52:33.568Z,9.25
2023-09-27T02:55:00.329Z,5.85
2023-09-27T02:57:26.947Z,4.30
2023-09-27T02:59:53.583Z,6.78
2023-09-27T03:02:21.679Z,4.60
2023-09-27T03:04:48.889Z,6.63
2023-09-27T03:07:16.760Z,4.47
2023-09-27T03:09:43.438Z,5.60
2023-09-27T03:12:10.146Z,7.57
2023-09-27T03:14:36.754Z,4.45
2023-09-27T03:17:03.446Z,9.23
2023-09-27T03:19:30.126Z,7.65
2023-09-27T03:21:57.404Z,5.05
2023-09-27T03:24:24.196Z,4.65
2023-09-27T03:26:50.806Z,5.80
2023-09-27T03:29:17.450Z,3.92
2023-09-27T03:31:44.167Z,4.30
2023-09-27T03:34:10.964Z,2.65
2023-09-27T03:36:37.573Z,4.97
2023-09-27T03:39:05.458Z,6.63
2023-09-27T03:41:34.343Z,2.95
2023-09-27T03:44:01.312Z,5.47
2023-09-27T03:46:28.039Z,4.72
2023-09-27T03:48:54.952Z,3.45
2023-09-27T03:51:25.617Z,5.65
2023-09-27T03:53:52.283Z,5.53
2023-09-27T03:56:19.076Z,3.92
2023-09-27T03:58:45.740Z,3.97
2023-09-27T04:01:12.358Z,3.55
2023-09-27T04:03:39.327Z,3.45
2023-09-27T04:06:05.986Z,3.60
2023-09-27T04:08:33.408Z,3.97
2023-09-27T04:11:05.044Z,7.10
2023-09-27T04:13:34.035Z,4.10
2023-09-27T04:16:01.700Z,4.85
2023-09-27T04:18:29.024Z,3.95
2023-09-27T04:20:55.762Z,4.50
2023-09-27T04:23:22.600Z,6.25
2023-09-27T04:25:49.338Z,4.07
2023-09-27T04:28:16.066Z,4.28
2023-09-27T04:30:42.693Z,3.10
2023-09-27T04:33:09.549Z,2.58
2023-09-27T04:35:36.237Z,4.53
2023-09-27T04:38:03.014Z,2.90
2023-09-27T04:40:30.407Z,6.15
2023-09-27T04:42:57.011Z,3.05
2023-09-27T04:45:23.983Z,3.20
2023-09-27T04:47:51.099Z,4.22
2023-09-27T04:50:17.983Z,4.45
2023-09-27T04:52:45.273Z,6.40
2023-09-27T04:55:13.844Z,5.32
2023-09-27T04:57:41.761Z,6.10
2023-09-27T05:00:15.430Z,7.68
2023-09-27T05:02:42.455Z,3.25
2023-09-27T05:05:09.927Z,3.55
2023-09-27T05:07:36.659Z,4.10
2023-09-27T05:10:03.933Z,6.05
2023-09-27T05:12:30.593Z,6.00
2023-09-27T05:15:04.181Z,7.70
2023-09-27T05:17:30.953Z,3.20
2023-09-27T05:19:57.608Z,7.85
2023-09-27T05:22:24.371Z,7.05
2023-09-27T05:24:51.040Z,9.75
2023-09-27T05:27:17.641Z,5.22
2023-09-27T05:29:44.431Z,8.32
2023-09-27T05:32:11.192Z,7.55
2023-09-27T05:34:37.818Z,5.72
2023-09-27T05:37:04.656Z,7.50
2023-09-27T05:39:31.291Z,5.57
2023-09-27T05:41:58.109Z,8.27
2023-09-27T05:44:24.817Z,6.22
2023-09-27T05:46:51.598Z,9.15
2023-09-27T05:49:19.589Z,6.57
2023-09-27T05:51:46.222Z,6.50
2023-09-27T05:54:12.917Z,4.63
2023-09-27T05:56:39.682Z,6.63
2023-09-27T05:59:10.314Z,8.32
2023-09-27T06:01:37.167Z,4.90
2023-09-27T06:04:05.018Z,8.90
2023-09-27T06:06:31.677Z,4.30
2023-09-27T06:08:58.710Z,5.13
2023-09-27T06:11:26.018Z,6.88
2023-09-27T06:13:52.745Z,4.00
2023-09-27T06:16:20.697Z,8.23
2023-09-27T06:18:47.364Z,5.72
2023-09-27T06:21:14.011Z,3.88
2023-09-27T06:23:41.029Z,5.70
2023-09-27T06:26:08.707Z,4.78
2023-09-27T06:28:39.186Z,4.03
2023-09-27T06:31:07.466Z,3.13
2023-09-27T06:33:40.620Z,5.18
2023-09-27T06:36:09.398Z,3.03
2023-09-27T06:38:36.679Z,4.70
2023-09-27T06:41:04.136Z,2.72
2023-09-27T06:43:32.673Z,4.80
2023-09-27T06:46:02.487Z,5.53
2023-09-27T06:48:29.475Z,4.63
2023-09-27T06:50:56.194Z,7.22
2023-09-27T06:53:26.438Z,4.60
2023-09-27T06:55:55.314Z,2.53
2023-09-27T06:58:24.733Z,4.85
2023-09-27T07:00:53.481Z,6.03
2023-09-27T07:03:26.213Z,5.03
2023-09-27T07:08:20.132Z,4.68
2023-09-27T07:10:47.382Z,7.78
2023-09-27T07:13:13.982Z,5.45
2023-09-27T07:15:40.710Z,5.32
2023-09-27T07:18:07.631Z,5.28
2023-09-27T07:20:36.020Z,5.50
2023-09-27T07:23:05.385Z,6.50
2023-09-27T07:25:35.720Z,6.07
2023-09-27T07:28:05.051Z,4.63
2023-09-27T07:30:36.684Z,6.63
2023-09-27T07:33:13.325Z,6.05
2023-09-27T07:35:44.654Z,5.47
2023-09-27T07:38:12.399Z,6.82
2023-09-27T07:40:39.609Z,10.30
2023-09-27T07:43:06.675Z,10.45
2023-09-27T07:45:36.393Z,5.50
2023-09-27T07:48:03.467Z,4.88
2023-09-27T07:50:32.560Z,6.55
2023-09-27T07:53:12.472Z,6.65
2023-09-27T07:55:51.928Z,5.35
2023-09-27T07:58:18.925Z,5.50
2023-09-27T08:00:45.812Z,6.05
2023-09-27T08:03:12.713Z,10.23
2023-09-27T08:05:46.382Z,9.02
2023-09-27T08:08:14.979Z,6.00
2023-09-27T08:10:44.754Z,9.25
2023-09-27T08:13:16.170Z,7.25
2023-09-27T08:15:44.068Z,6.28
2023-09-27T08:18:11.013Z,8.07
2023-09-27T08:20:37.983Z,6.90
2023-09-27T08:23:05.566Z,10.55
2023-09-27T08:25:32.413Z,5.15
2023-09-27T08:27:59.164Z,7.55
2023-09-27T08:30:25.782Z,8.00
2023-09-27T08:32:52.834Z,5.25
2023-09-27T08:35:20.024Z,6.18
2023-09-27T08:37:47.267Z,7.63
2023-09-27T08:40:16.946Z,6.47
2023-09-27T08:42:44.756Z,6.03
2023-09-27T08:45:16.188Z,7.43
2023-09-27T08:47:46.507Z,8.10
2023-09-27T08:50:16.853Z,7.88
2023-09-27T08:52:49.658Z,6.93
2023-09-27T08:55:18.324Z,6.30
2023-09-27T08:57:52.617Z,7.40
2023-09-27T09:00:23.201Z,7.15
2023-09-27T09:03:00.005Z,6.38
2023-09-27T09:05:30.040Z,8.73
2023-09-27T09:07:59.096Z,4.82
2023-09-27T09:10:25.809Z,6.53
2023-09-27T09:12:53.429Z,10.82
2023-09-27T09:15:42.779Z,10.50
2023-09-27T09:18:16.262Z,8.98
2023-09-27T09:20:59.787Z,8.00
2023-09-27T09:23:34.896Z,6.95
2023-09-27T09:26:04.739Z,6.90
2023-09-27T09:28:31.462Z,10.32
2023-09-27T09:30:58.328Z,8.40
2023-09-27T09:33:26.462Z,8.07
2023-09-27T09:35:53.831Z,7.60
2023-09-27T09:38:30.282Z,7.70
2023-09-27T09:41:02.062Z,5.97
2023-09-27T09:43:29.924Z,12.30
2023-09-27T09:45:57.219Z,6.55
2023-09-27T09:48:24.794Z,6.32
2023-09-27T09:50:52.145Z,5.57
2023-09-27T09:53:20.295Z,6.03
2023-09-27T09:58:45.994Z,8.90
2023-09-27T10:01:19.807Z,7.35
2023-09-27T10:03:50.242Z,8.18
2023-09-27T10:06:32.484Z,10.02
2023-09-27T10:09:17.359Z,8.40
2023-09-27T10:11:47.380Z,10.18
2023-09-27T10:14:15.584Z,7.43
2023-09-27T10:16:42.686Z,8.45
2023-09-27T10:19:09.529Z,10.05
2023-09-27T10:21:36.218Z,8.27
2023-09-27T10:24:03.754Z,8.20
2023-09-27T10:26:30.573Z,10.05
2023-09-27T10:29:11.723Z,7.43
2023-09-27T10:31:58.546Z,7.65
2023-09-27T10:34:28.185Z,7.32
2023-09-27T10:37:15.002Z,5.25
2023-09-27T10:39:42.349Z,9.60
2023-09-27T10:42:09.137Z,7.78
2023-09-27T10:44:42.879Z,9.10
2023-09-27T10:47:10.326Z,8.38
2023-09-27T10:49:41.227Z,6.90
2023-09-27T10:52:17.743Z,11.18
2023-09-27T10:54:45.075Z,6.15
2023-09-27T10:57:13.412Z,5.45
2023-09-27T10:59:40.479Z,7.22
2023-09-27T11:02:08.204Z,9.73
2023-09-27T11:04:37.428Z,6.95
2023-09-27T11:07:05.190Z,7.78
2023-09-27T11:09:33.791Z,8.18
2023-09-27T11:12:00.767Z,9.80
2023-09-27T11:14:27.439Z,9.07
2023-09-27T11:16:54.748Z,6.32
2023-09-27T11:19:28.895Z,5.57
2023-09-27T11:21:55.705Z,7.93
2023-09-27T11:24:22.392Z,8.32
2023-09-27T11:26:49.042Z,4.55
2023-09-27T11:29:17.329Z,11.27
2023-09-27T11:31:44.096Z,8.00
2023-09-27T11:34:19.151Z,7.35
2023-09-27T11:36:48.205Z,11.57
2023-09-27T11:39:15.918Z,6.15
2023-09-27T11:41:43.375Z,9.38
2023-09-27T11:44:20.209Z,7.80
2023-09-27T11:46:49.657Z,9.25
2023-09-27T11:49:18.448Z,9.82
2023-09-27T11:51:45.581Z,9.90
2023-09-27T11:54:15.563Z,7.43
2023-09-27T11:56:42.287Z,10.25
2023-09-27T11:59:11.867Z,5.70
2023-09-27T12:01:38.762Z,9.10
2023-09-27T12:04:07.238Z,6.63
2023-09-27T12:06:34.954Z,8.95
2023-09-27T12:09:02.536Z,9.30
2023-09-27T12:11:29.274Z,10.05
2023-09-27T12:13:55.980Z,7.45
2023-09-27T12:16:22.743Z,10.15
2023-09-27T12:18:49.542Z,11.50
2023-09-27T12:21:16.339Z,8.30
2023-09-27T12:23:45.363Z,10.18
2023-09-27T12:26:13.852Z,9.38
2023-09-27T12:28:40.669Z,12.00
2023-09-27T12:31:07.419Z,7.85
2023-09-27T12:33:36.631Z,8.52
2023-09-27T12:36:05.347Z,7.07
2023-09-27T12:38:32.169Z,13.68
2023-09-27T12:41:01.624Z,13.10
2023-09-27T12:43:28.493Z,9.98
2023-09-27T12:45:55.294Z,12.52
2023-09-27T12:48:22.082Z,10.60
2023-09-27T12:50:48.867Z,10.88
2023-09-27T12:53:17.207Z,10.90
2023-09-27T12:55:44.130Z,9.38
2023-09-27T12:58:12.740Z,9.75
2023-09-27T13:00:40.143Z,14.00
2023-09-27T13:03:08.445Z,10.95
2023-09-27T13:05:39.663Z,9.52
2023-09-27T13:08:06.910Z,14.23
2023-09-27T13:10:34.112Z,16.38
2023-09-27T13:13:00.765Z,12.52
2023-09-27T13:15:27.425Z,9.98
2023-09-27T13:17:54.219Z,8.13
2023-09-27T13:20:21.148Z,11.45
2023-09-27T13:22:51.117Z,10.25
2023-09-27T13:25:18.864Z,10.40
2023-09-27T13:27:46.466Z,11.68
2023-09-27T13:30:25.717Z,10.82
2023-09-27T13:33:04.076Z,9.68
2023-09-27T13:35:32.836Z,11.48
2023-09-27T13:38:05.583Z,11.82
2023-09-27T13:40:32.344Z,9.43
2023-09-27T13:42:59.156Z,13.32
2023-09-27T13:45:25.919Z,13.30
2023-09-27T13:47:52.673Z,13.35
2023-09-27T13:50:20.156Z,11.10
2023-09-27T13:52:49.519Z,10.05
2023-09-27T13:55:16.376Z,19.10
2023-09-27T13:57:43.110Z,11.60
2023-09-27T14:00:14.186Z,12.30
2023-09-27T14:02:43.324Z,16.55
2023-09-27T14:05:11.021Z,8.48
2023-09-27T14:07:40.157Z,9.85
2023-09-27T14:10:09.065Z,10.07
2023-09-27T14:12:35.873Z,8.80
2023-09-27T14:15:04.018Z,8.57
2023-09-27T14:17:31.039Z,15.73
2023-09-27T14:19:57.809Z,12.38
2023-09-27T14:22:24.495Z,11.23
2023-09-27T14:24:51.242Z,11.02
2023-09-27T14:27:18.408Z,12.02
2023-09-27T14:29:45.218Z,14.70
2023-09-27T14:32:12.235Z,10.75
2023-09-27T14:34:42.748Z,8.27
2023-09-27T14:37:23.516Z,17.13
2023-09-27T14:39:50.204Z,13.05
2023-09-27T14:42:17.289Z,13.05
2023-09-27T14:44:43.948Z,9.63
2023-09-27T14:47:10.594Z,14.85
2023-09-27T14:49:37.267Z,10.88
2023-09-27T14:52:03.963Z,33.15
2023-09-27T14:54:30.555Z,14.48
2023-09-27T14:56:58.492Z,28.58
2023-09-27T14:59:25.187Z,32.40
2023-09-27T15:01:54.366Z,22.40
2023-09-27T15:04:21.161Z,49.08
2023-09-27T15:06:48.304Z,38.97
2023-09-27T15:09:15.733Z,23.83
2023-09-27T15:11:43.432Z,43.45
2023-09-27T15:14:10.107Z,27.05
2023-09-27T15:16:36.934Z,20.38
2023-09-27T15:19:03.847Z,23.73
2023-09-27T15:21:30.545Z,15.48
2023-09-27T15:23:57.147Z,24.60
2023-09-27T15:26:24.267Z,17.15
2023-09-27T15:28:50.938Z,22.08
2023-09-27T15:31:17.601Z,24.90
2023-09-27T15:33:44.246Z,17.42
2023-09-27T15:36:13.006Z,21.58
2023-09-27T15:38:44.513Z,17.08
2023-09-27T15:41:18.838Z,26.45
2023-09-27T15:43:46.237Z,23.88
2023-09-27T15:46:15.022Z,19.95
2023-09-27T15:48:41.886Z,17.65
2023-09-27T15:51:10.956Z,23.45
2023-09-27T15:53:38.794Z,22.27
2023-09-27T15:56:06.794Z,20.60
2023-09-27T15:58:34.331Z,16.77
2023-09-27T16:01:05.694Z,23.02
2023-09-27T16:03:33.293Z,19.52
2023-09-27T16:06:01.832Z,23.05
2023-09-27T16:08:29.100Z,21.77
2023-09-27T16:10:57.368Z,24.98
2023-09-27T16:13:24.371Z,24.38
2023-09-27T16:15:52.242Z,28.13
2023-09-27T16:18:20.781Z,18.13
2023-09-27T16:20:48.552Z,18.55
2023-09-27T16:23:16.848Z,16.15
2023-09-27T16:25:44.492Z,21.60
2023-09-27T16:28:11.293Z,20.73
2023-09-27T16:30:40.425Z,20.83
2023-09-27T16:33:07.305Z,22.58
2023-09-27T16:35:37.484Z,24.98
2023-09-27T16:38:04.570Z,24.83
2023-09-27T16:40:31.886Z,24.10
2023-09-27T16:42:59.281Z,19.33
2023-09-27T16:45:26.127Z,18.95
2023-09-27T16:47:52.894Z,17.83
2023-09-27T16:50:19.916Z,16.27
2023-09-27T16:52:46.753Z,21.35
2023-09-27T16:55:13.423Z,17.80
2023-09-27T16:57:40.098Z,27.00
2023-09-27T17:00:11.514Z,29.70
2023-09-27T17:02:39.422Z,17.90
2023-09-27T17:05:08.282Z,21.27
2023-09-27T17:07:38.708Z,17.60
2023-09-27T17:10:10.275Z,28.42
2023-09-27T17:12:37.537Z,21.48
2023-09-27T17:15:07.834Z,28.70
2023-09-27T17:20:02.798Z,26.40
2023-09-27T17:22:29.516Z,20.27
2023-09-27T17:24:56.330Z,27.02
2023-09-27T17:27:23.234Z,30.83
2023-09-27T17:29:49.967Z,25.55
2023-09-27T17:32:16.679Z,25.50
2023-09-27T17:34:43.366Z,24.52
2023-09-27T17:37:11.063Z,23.75
2023-09-27T17:39:37.798Z,25.90
2023-09-27T17:42:04.606Z,27.27
2023-09-27T17:44:31.685Z,30.10
2023-09-27T17:46:59.096Z,22.67
2023-09-27T17:49:26.933Z,36.85
2023-09-27T17:51:55.768Z,32.95
2023-09-27T17:54:23.026Z,41.88
2023-09-27T17:56:51.661Z,28.08
2023-09-27T17:59:20.207Z,26.73
2023-09-27T18:01:47.792Z,44.63
2023-09-27T18:04:14.609Z,33.28
2023-09-27T18:06:41.593Z,35.95
2023-09-27T18:09:08.245Z,29.35
2023-09-27T18:11:34.875Z,28.98
2023-09-27T18:14:01.687Z,43.08
2023-09-27T18:16:28.818Z,31.52
2023-09-27T18:18:55.597Z,23.05
2023-09-27T18:21:22.881Z,37.53
2023-09-27T18:23:52.316Z,33.40
2023-09-27T18:26:19.330Z,43.63
2023-09-27T18:28:46.166Z,34.58
2023-09-27T18:31:13.225Z,39.88
2023-09-27T18:33:41.053Z,30.10
2023-09-27T18:36:08.345Z,38.55
2023-09-27T18:38:35.876Z,39.67
2023-09-27T18:41:03.601Z,33.65
2023-09-27T18:43:30.275Z,32.28
2023-09-27T18:45:59.671Z,39.33
2023-09-27T18:48:26.666Z,37.35
2023-09-27T18:50:53.358Z,45.13
2023-09-27T18:53:19.996Z,32.13
2023-09-27T18:55:46.719Z,29.17
2023-09-27T18:58:16.255Z,37.53
2023-09-27T19:00:43.743Z,30.33
2023-09-27T19:03:11.470Z,38.90
2023-09-27T19:05:38.160Z,36.78
2023-09-27T19:08:05.410Z,44.38
2023-09-27T19:10:33.580Z,40.35
2023-09-27T19:13:00.545Z,42.88
2023-09-27T19:15:27.278Z,34.10
2023-09-27T19:17:57.855Z,35.60
2023-09-27T19:20:27.647Z,35.78
2023-09-27T19:22:54.716Z,33.42
2023-09-27T19:25:21.829Z,42.45
2023-09-27T19:27:49.443Z,40.38
2023-09-27T19:30:17.263Z,36.53
2023-09-27T19:32:45.242Z,42.88
2023-09-27T19:35:15.833Z,43.28
2023-09-27T19:37:43.778Z,48.70
2023-09-27T19:40:10.981Z,34.47
2023-09-27T19:42:38.187Z,39.67
2023-09-27T19:45:06.518Z,35.63
2023-09-27T19:47:36.281Z,31.20
2023-09-27T19:50:04.356Z,38.15
2023-09-27T19:52:31.256Z,43.15
2023-09-27T19:54:57.978Z,48.67
2023-09-27T19:57:24.650Z,50.40
2023-09-27T19:59:51.483Z,48.28
2023-09-27T20:02:18.255Z,39.35
2023-09-27T20:04:44.991Z,44.75
2023-09-27T20:07:11.658Z,38.15
2023-09-27T20:09:38.629Z,39.15
2023-09-27T20:12:05.380Z,38.63
2023-09-27T20:14:32.431Z,40.88
2023-09-27T20:16:59.336Z,43.40
2023-09-27T20:19:26.066Z,38.20
2023-09-27T20:21:56.440Z,42.42
2023-09-27T20:24:26.994Z,39.13
2023-09-27T20:26:53.651Z,41.85
2023-09-27T20:29:20.945Z,43.55
2023-09-27T20:31:47.791Z,37.90
2023-09-27T20:34:14.525Z,40.17
2023-09-27T20:36:42.269Z,44.58
2023-09-27T20:39:11.609Z,45.28
2023-09-27T20:41:38.247Z,42.17
2023-09-27T20:44:06.921Z,38.88
2023-09-27T20:46:33.755Z,50.28
2023-09-27T20:49:01.262Z,40.60
2023-09-27T20:51:28.103Z,41.95
2023-09-27T20:53:55.265Z,42.03
2023-09-27T20:56:22.288Z,41.45
2023-09-27T20:58:49.593Z,44.15
2023-09-27T21:01:36.920Z,48.63
2023-09-27T21:04:04.152Z,38.92
2023-09-27T21:06:31.033Z,39.72
2023-09-27T21:08:59.015Z,37.25
2023-09-27T21:11:25.959Z,35.33
2023-09-27T21:14:01.363Z,48.55
2023-09-27T21:16:29.486Z,58.78
2023-09-27T21:18:58.323Z,41.30
2023-09-27T21:21:25.029Z,40.00
2023-09-27T21:23:53.362Z,40.45
2023-09-27T21:26:20.906Z,52.75
2023-09-27T21:28:47.850Z,47.95
2023-09-27T21:31:14.986Z,51.47
2023-09-27T21:33:43.126Z,50.58
2023-09-27T21:36:09.994Z,43.67
2023-09-27T21:38:37.190Z,47.15
2023-09-27T21:41:04.792Z,45.90
2023-09-27T21:43:33.726Z,56.38
2023-09-27T21:46:01.137Z,40.78
2023-09-27T21:48:30.626Z,44.78
2023-09-27T21:50:57.563Z,47.67
2023-09-27T21:53:24.465Z,51.28
2023-09-27T21:55:51.269Z,43.55
2023-09-27T21:58:17.903Z,50.40
2023-09-27T22:00:44.523Z,49.78
2023-09-27T22:03:13.230Z,52.78
2023-09-27T22:05:40.416Z,54.53
2023-09-27T22:08:17.496Z,62.08
2023-09-27T22:10:45.415Z,42.35
2023-09-27T22:13:24.619Z,46.90
2023-09-27T22:15:52.851Z,65.88
2023-09-27T22:18:20.336Z,53.33
2023-09-27T22:20:48.878Z,67.10
2023-09-27T22:23:40.457Z,56.85
2023-09-27T22:26:17.224Z,53.67
2023-09-27T22:28:46.170Z,63.10
2023-09-27T22:31:14.219Z,46.20
2023-09-27T22:33:44.771Z,58.53
2023-09-27T22:36:13.522Z,52.92
2023-09-27T22:38:41.012Z,55.35
2023-09-27T22:41:20.142Z,52.78
2023-09-27T22:43:50.174Z,56.63
2023-09-27T22:46:17.101Z,41.80
2023-09-27T22:48:43.766Z,58.22
2023-09-27T22:51:10.366Z,48.13
2023-09-27T22:53:37.410Z,53.97
2023-09-27T22:56:06.125Z,60.58
2023-09-27T22:58:35.910Z,53.08
2023-09-27T23:01:29.100Z,54.55
2023-09-27T23:03:56.949Z,48.13
2023-09-27T23:06:24.334Z,51.60
2023-09-27T23:08:51.310Z,45.08
2023-09-27T23:11:21.286Z,49.50
2023-09-27T23:14:05.974Z,48.25
2023-09-27T23:16:48.679Z,53.40
2023-09-27T23:19:18.046Z,46.80
2023-09-27T23:21:48.935Z,49.08
2023-09-27T23:24:24.530Z,63.80
2023-09-27T23:27:03.294Z,63.60
2023-09-27T23:29:30.243Z,53.70
2023-09-27T23:32:24.112Z,50.60
2023-09-27T23:34:51.733Z,51.35
2023-09-27T23:37:19.764Z,56.00
2023-09-27T23:39:50.386Z,53.70
2023-09-27T23:42:24.451Z,67.47
2023-09-27T23:44:52.002Z,54.28
2023-09-27T23:47:23.562Z,40.17
2023-09-27T23:49:53.551Z,44.05
2023-09-27T23:52:24.515Z,48.67
2023-09-27T23:54:55.652Z,43.78
2023-09-27T23:57:28.571Z,46.58
2023-09-27T23:59:56.867Z,48.30
